world map with WPA marked

WPA - Airport

This information may not be accurate or current and is not valid for navigation or flight planning. No warranty of fitness for any purpose is made or implied.

flag of Aysén del General Carlos Ibáñez del Campoflag of Chile

Donate via PayPal

Additional information is available on the NEW Great Circle Mapper

Location
City:  Puerto Aysen, Aysén del General Carlos Ibáñez del Campo, Chile
Near (Alt.):Puerto Aisén
Name:Cabo 1° Juan Román Airport
ICAO / IATA:SCAS / WPA

Details
Type:Airport (Aerodrome, Airfield)
Use:Public/Civil
Latitude:45°23'57"S (-45.399166)
Longitude:72°40'13"W (-72.670277)
Elevation:32 ft (10 m)
Runways:1
Longest:4347 × 75 ft (1325 × 23 m)

Weather
METAR:SCAS  182000Z 25016KT CAVOK 16/07 Q1016

Related Locations
Nearby:
Farthest:MXW: 12381 mi / 19926 km
Mandalgovi (Mandalgobi) [Mandalgovi Airport], 059, MN

Find:

   beyond  
but within

Other Information
Maps:
Sources:

  


 


Great Circle Mapper   Great Circle Mapper
Great Circle Mapper FAQ   Great Circle Mapper FAQ
  Karl's Home Page
KLS²   KLS² Home
   GC on Facebook
Airlines of the World   Airlines of the World
Donate via PayPal


Copyright © 2004-2018, Karl L. Swartz. All rights reserved.
All trademarks mentioned herein belong to their respective owners.

Please see credits for attribution and copyright information.

Karl Swartz <karl@kls2.com>
  Powered by FreeBSD
Valid HTML 4.01!
Labeled with ICRA
hCard Microformat
Geo Microformat